createdAt,value
2022-12-19T00:00:00.540Z,0.045
2022-12-19T00:01:00.478Z,0.045
2022-12-19T00:02:00.599Z,0.045
2022-12-19T00:03:00.592Z,0.045
2022-12-19T00:04:00.506Z,0.045
2022-12-19T00:05:00.652Z,0.045
2022-12-19T00:06:00.635Z,0.045
2022-12-19T00:07:00.416Z,0.045
2022-12-19T00:08:02.457Z,0.045
2022-12-19T00:09:00.450Z,0.045
2022-12-19T00:10:00.450Z,0.045
2022-12-19T00:11:00.540Z,0.045
2022-12-19T00:12:00.664Z,0.045
2022-12-19T00:13:00.494Z,0.045
2022-12-19T00:14:00.499Z,0.045
2022-12-19T00:15:00.446Z,0.045
2022-12-19T00:16:00.495Z,0.045
2022-12-19T00:17:00.419Z,0.045
2022-12-19T00:18:00.614Z,0.045
2022-12-19T00:19:00.456Z,0.045
2022-12-19T00:20:00.475Z,0.045
2022-12-19T00:21:00.512Z,0.045
2022-12-19T00:22:00.441Z,0.045
2022-12-19T00:23:00.443Z,0.045
2022-12-19T00:24:00.565Z,0.045
2022-12-19T00:25:00.495Z,0.045
2022-12-19T00:26:00.455Z,0.045
2022-12-19T00:27:00.549Z,0.045
2022-12-19T00:28:00.468Z,0.045
2022-12-19T00:29:00.442Z,0.045
2022-12-19T00:30:00.569Z,0.045
2022-12-19T00:31:00.474Z,0.045
2022-12-19T00:32:00.524Z,0.045
2022-12-19T00:33:00.443Z,0.045
2022-12-19T00:34:00.459Z,0.045
2022-12-19T00:35:01.116Z,0.090
2022-12-19T00:36:00.712Z,0.045
2022-12-19T00:37:00.449Z,0.045
2022-12-19T00:38:00.523Z,0.045
2022-12-19T00:39:00.487Z,0.045
2022-12-19T00:40:00.444Z,0.045
2022-12-19T00:41:00.476Z,0.045
2022-12-19T00:42:00.738Z,0.045
2022-12-19T00:43:00.419Z,0.045
2022-12-19T00:44:00.471Z,0.045
2022-12-19T00:45:00.412Z,0.045
2022-12-19T00:46:00.473Z,0.045
2022-12-19T00:47:00.416Z,0.045
2022-12-19T00:48:00.589Z,0.045
2022-12-19T00:49:00.441Z,0.045
2022-12-19T00:50:00.476Z,0.045
2022-12-19T00:51:00.590Z,0.045
2022-12-19T00:52:00.448Z,0.045
2022-12-19T00:53:00.470Z,0.045
2022-12-19T00:54:00.691Z,0.045
2022-12-19T00:55:00.637Z,0.045
2022-12-19T00:56:00.444Z,0.045
2022-12-19T00:57:00.442Z,0.045
2022-12-19T00:58:00.616Z,0.045
2022-12-19T00:59:00.449Z,0.045
2022-12-19T01:00:00.599Z,0.045
2022-12-19T01:01:00.524Z,0.045
2022-12-19T01:02:00.631Z,0.045
2022-12-19T01:03:00.484Z,0.045
2022-12-19T01:04:28.865Z,0.045
2022-12-19T01:05:00.444Z,0.045
2022-12-19T01:06:00.537Z,0.045
2022-12-19T01:07:02.572Z,0.045
2022-12-19T01:08:00.505Z,0.045
2022-12-19T01:09:00.517Z,0.045
2022-12-19T01:10:00.520Z,0.045
2022-12-19T01:11:00.443Z,0.045
2022-12-19T01:12:00.611Z,0.045
2022-12-19T01:13:00.567Z,0.045
2022-12-19T01:14:00.508Z,0.045
2022-12-19T01:15:04.939Z,0.045
2022-12-19T01:16:00.476Z,0.045
2022-12-19T01:17:00.493Z,0.045
2022-12-19T01:18:00.689Z,0.045
2022-12-19T01:19:00.448Z,0.045
2022-12-19T01:20:00.473Z,0.045
2022-12-19T01:21:00.465Z,0.045
2022-12-19T01:22:00.478Z,0.045
2022-12-19T01:23:00.868Z,0.045
2022-12-19T01:24:00.488Z,0.045
2022-12-19T01:25:00.413Z,0.045
2022-12-19T01:26:00.440Z,0.045
2022-12-19T01:27:00.470Z,0.045
2022-12-19T01:28:00.460Z,0.045
2022-12-19T01:29:00.440Z,0.045
2022-12-19T01:30:00.610Z,0.045
2022-12-19T01:31:00.415Z,0.045
2022-12-19T01:32:00.517Z,0.045
2022-12-19T01:33:00.448Z,0.045
2022-12-19T01:34:00.485Z,0.045
2022-12-19T01:35:00.416Z,0.045
2022-12-19T01:36:00.605Z,0.045
2022-12-19T01:37:00.516Z,0.045
2022-12-19T01:38:07.855Z,0.045
2022-12-19T01:39:00.443Z,0.045
2022-12-19T01:40:00.482Z,0.045
2022-12-19T01:41:00.456Z,0.045
2022-12-19T01:42:00.640Z,0.045
2022-12-19T01:43:00.443Z,0.045
2022-12-19T01:44:00.520Z,0.045
2022-12-19T01:45:00.480Z,0.045
2022-12-19T01:46:00.519Z,0.045
2022-12-19T01:47:00.510Z,0.045
2022-12-19T01:48:00.607Z,0.045
2022-12-19T01:49:00.470Z,0.045
2022-12-19T01:50:00.475Z,0.090
2022-12-19T01:51:01.770Z,0.045
2022-12-19T01:52:00.450Z,0.045
2022-12-19T01:53:00.486Z,0.045
2022-12-19T01:54:00.507Z,0.045
2022-12-19T01:55:00.472Z,0.045
2022-12-19T01:56:00.436Z,0.045
2022-12-19T01:57:00.437Z,0.045
2022-12-19T01:58:00.418Z,0.045
2022-12-19T01:59:06.031Z,0.045
2022-12-19T02:00:00.615Z,0.045
2022-12-19T02:01:00.500Z,0.045
2022-12-19T02:02:00.565Z,0.045
2022-12-19T02:03:00.497Z,0.045
2022-12-19T02:04:00.428Z,0.045
2022-12-19T02:05:00.506Z,0.045
2022-12-19T02:06:00.645Z,0.045
2022-12-19T02:07:00.413Z,0.045
2022-12-19T02:08:00.482Z,0.045
2022-12-19T02:09:00.561Z,0.045
2022-12-19T02:10:00.394Z,0.045
2022-12-19T02:11:00.455Z,0.045
2022-12-19T02:12:00.646Z,0.045
2022-12-19T02:13:00.509Z,0.045
2022-12-19T02:14:00.495Z,0.045
2022-12-19T02:15:03.219Z,0.045
2022-12-19T02:16:00.405Z,0.045
2022-12-19T02:17:00.473Z,0.045
2022-12-19T02:18:00.624Z,0.045
2022-12-19T02:19:00.391Z,0.045
2022-12-19T02:20:00.449Z,0.045
2022-12-19T02:21:00.488Z,0.045
2022-12-19T02:22:00.390Z,0.045
2022-12-19T02:23:00.454Z,0.045
2022-12-19T02:24:00.630Z,0.045
2022-12-19T02:25:00.505Z,0.045
2022-12-19T02:26:00.415Z,0.045
2022-12-19T02:27:00.462Z,0.045
2022-12-19T02:28:00.450Z,0.045
2022-12-19T02:29:00.491Z,0.045
2022-12-19T02:30:00.548Z,0.045
2022-12-19T02:31:00.438Z,0.045
2022-12-19T02:32:00.485Z,0.045
2022-12-19T02:33:00.436Z,0.045
2022-12-19T02:34:00.398Z,0.045
2022-12-19T02:35:00.390Z,0.045
2022-12-19T02:36:01.331Z,0.045
2022-12-19T02:37:00.465Z,0.045
2022-12-19T02:38:00.460Z,0.045
2022-12-19T02:39:00.434Z,0.045
2022-12-19T02:40:00.580Z,0.045
2022-12-19T02:41:00.505Z,0.045
2022-12-19T02:42:00.550Z,0.045
2022-12-19T02:43:00.429Z,0.045
2022-12-19T02:44:00.472Z,0.045
2022-12-19T02:45:00.434Z,0.045
2022-12-19T02:46:00.499Z,0.090
2022-12-19T02:47:00.492Z,0.045
2022-12-19T02:48:04.478Z,0.045
2022-12-19T02:49:00.514Z,0.045
2022-12-19T02:50:00.465Z,0.090
2022-12-19T02:51:00.485Z,0.045
2022-12-19T02:52:00.541Z,0.045
2022-12-19T02:53:00.412Z,0.045
2022-12-19T02:54:01.348Z,0.045
2022-12-19T02:55:00.457Z,0.045
2022-12-19T02:56:00.570Z,0.045
2022-12-19T02:57:00.461Z,0.045
2022-12-19T02:58:00.461Z,0.045
2022-12-19T02:59:00.439Z,0.045
2022-12-19T03:00:00.553Z,0.045
2022-12-19T03:01:00.516Z,0.045
2022-12-19T03:02:00.609Z,0.045
2022-12-19T03:03:01.376Z,0.045
2022-12-19T03:04:00.424Z,0.045
2022-12-19T03:05:00.438Z,0.045
2022-12-19T03:06:00.692Z,0.045
2022-12-19T03:07:00.472Z,0.045
2022-12-19T03:08:00.418Z,0.045
2022-12-19T03:09:00.782Z,0.045
2022-12-19T03:10:00.473Z,0.045
2022-12-19T03:11:00.591Z,0.045
2022-12-19T03:12:00.668Z,0.045
2022-12-19T03:13:00.561Z,0.045
2022-12-19T03:14:00.701Z,0.045
2022-12-19T03:15:00.569Z,0.045
2022-12-19T03:16:00.582Z,0.045
2022-12-19T03:17:00.564Z,0.045
2022-12-19T03:18:03.286Z,0.045
2022-12-19T03:19:00.563Z,0.045
2022-12-19T03:20:00.882Z,0.045
2022-12-19T03:21:00.490Z,0.045
2022-12-19T03:22:00.574Z,0.045
2022-12-19T03:23:00.486Z,0.090
2022-12-19T03:24:00.644Z,0.090
2022-12-19T03:25:00.470Z,0.090
2022-12-19T03:26:00.647Z,0.090
2022-12-19T03:27:00.482Z,0.090
2022-12-19T03:28:00.502Z,0.090
2022-12-19T03:29:00.496Z,0.090
2022-12-19T03:30:00.708Z,0.090
2022-12-19T03:31:00.682Z,0.090
2022-12-19T03:32:00.504Z,0.090
2022-12-19T03:33:00.476Z,0.090
2022-12-19T03:34:00.505Z,0.090
2022-12-19T03:35:00.463Z,0.090
2022-12-19T03:36:00.609Z,0.090
2022-12-19T03:37:00.449Z,0.090
2022-12-19T03:38:00.473Z,0.090
2022-12-19T03:39:00.484Z,0.090
2022-12-19T03:40:00.436Z,0.090
2022-12-19T03:41:00.487Z,0.090
2022-12-19T03:42:00.622Z,0.135
2022-12-19T03:43:00.469Z,0.135
2022-12-19T03:44:00.492Z,0.135
2022-12-19T03:45:00.554Z,0.180
2022-12-19T03:46:00.825Z,0.180
2022-12-19T03:47:00.964Z,0.180
2022-12-19T03:48:00.624Z,0.180
2022-12-19T03:49:00.508Z,0.180
2022-12-19T03:50:00.594Z,0.225
2022-12-19T03:51:00.792Z,0.270
2022-12-19T03:52:00.480Z,0.315
2022-12-19T03:53:00.475Z,0.405
2022-12-19T03:54:00.731Z,0.450
2022-12-19T03:55:00.465Z,0.540
2022-12-19T03:56:00.526Z,0.720
2022-12-19T03:57:00.567Z,0.855
2022-12-19T03:58:00.429Z,1.080
2022-12-19T03:59:00.455Z,1.260
2022-12-19T04:00:00.670Z,1.485
2022-12-19T04:01:00.925Z,1.890
2022-12-19T04:02:00.646Z,2.250
2022-12-19T04:03:00.468Z,2.790
2022-12-19T04:04:00.576Z,3.375
2022-12-19T04:05:00.653Z,4.095
2022-12-19T04:06:00.633Z,4.950
2022-12-19T04:07:00.466Z,5.760
2022-12-19T04:08:00.457Z,6.795
2022-12-19T04:09:00.431Z,7.965
2022-12-19T04:10:00.519Z,9.225
2022-12-19T04:11:00.484Z,10.440
2022-12-19T04:12:00.626Z,11.880
2022-12-19T04:13:00.508Z,13.590
2022-12-19T04:14:00.555Z,15.300
2022-12-19T04:15:00.564Z,17.100
2022-12-19T04:16:00.543Z,18.810
2022-12-19T04:17:00.511Z,20.340
2022-12-19T04:18:00.685Z,22.320
2022-12-19T04:19:00.501Z,24.660
2022-12-19T04:20:00.584Z,27.540
2022-12-19T04:21:00.430Z,30.780
2022-12-19T04:22:00.458Z,33.660
2022-12-19T04:23:00.434Z,36.360
2022-12-19T04:24:00.747Z,39.420
2022-12-19T04:25:00.495Z,42.120
2022-12-19T04:26:00.467Z,44.280
2022-12-19T04:27:00.536Z,46.800
2022-12-19T04:28:00.459Z,51.120
2022-12-19T04:29:00.888Z,56.880
2022-12-19T04:30:00.594Z,60.480
2022-12-19T04:31:00.521Z,64.080
2022-12-19T04:32:00.458Z,67.680
2022-12-19T04:33:00.495Z,71.280
2022-12-19T04:34:00.497Z,73.800
2022-12-19T04:35:00.473Z,76.320
2022-12-19T04:36:00.641Z,79.200
2022-12-19T04:37:00.519Z,82.080
2022-12-19T04:38:00.492Z,86.400
2022-12-19T04:39:00.487Z,88.920
2022-12-19T04:40:00.536Z,91.800
2022-12-19T04:41:00.628Z,94.320
2022-12-19T04:42:00.609Z,95.760
2022-12-19T04:43:00.498Z,99.360
2022-12-19T04:44:00.541Z,105.120
2022-12-19T04:45:00.529Z,110.160
2022-12-19T04:46:00.758Z,112.320
2022-12-19T04:47:00.812Z,115.200
2022-12-19T04:48:00.718Z,118.800
2022-12-19T04:49:00.489Z,122.400
2022-12-19T04:50:00.508Z,128.880
2022-12-19T04:51:00.522Z,135.360
2022-12-19T04:52:00.438Z,142.560
2022-12-19T04:53:00.472Z,147.600
2022-12-19T04:54:00.612Z,149.040
2022-12-19T04:55:00.552Z,154.080
2022-12-19T04:56:00.587Z,158.400
2022-12-19T04:57:00.553Z,165.600
2022-12-19T04:58:00.484Z,171.360
2022-12-19T04:59:00.475Z,174.240
2022-12-19T05:00:00.665Z,177.120
2022-12-19T05:01:00.552Z,185.760
2022-12-19T05:02:00.620Z,200.160
2022-12-19T05:03:00.686Z,210.240
2022-12-19T05:04:04.401Z,214.560
2022-12-19T05:05:00.456Z,220.320
2022-12-19T05:06:00.627Z,231.840
2022-12-19T05:07:00.473Z,241.920
2022-12-19T05:08:00.489Z,250.560
2022-12-19T05:09:00.497Z,254.880
2022-12-19T05:10:00.504Z,257.760
2022-12-19T05:11:00.456Z,263.520
2022-12-19T05:12:00.706Z,266.400
2022-12-19T05:13:00.465Z,269.280
2022-12-19T05:14:00.460Z,269.280
2022-12-19T05:15:00.473Z,273.600
2022-12-19T05:16:00.493Z,279.360
2022-12-19T05:17:01.484Z,282.240
2022-12-19T05:18:00.586Z,285.120
2022-12-19T05:19:00.427Z,293.760
2022-12-19T05:20:00.495Z,311.040
2022-12-19T05:21:00.484Z,328.320
2022-12-19T05:22:00.459Z,332.640
2022-12-19T05:23:04.317Z,334.080
2022-12-19T05:24:00.651Z,325.440
2022-12-19T05:25:00.435Z,334.080
2022-12-19T05:26:00.429Z,355.680
2022-12-19T05:27:00.808Z,368.640
2022-12-19T05:28:00.457Z,380.160
2022-12-19T05:29:00.541Z,391.680
2022-12-19T05:30:00.520Z,397.440
2022-12-19T05:31:00.506Z,414.720
2022-12-19T05:32:00.461Z,432.000
2022-12-19T05:33:00.456Z,443.520
2022-12-19T05:34:00.463Z,460.800
2022-12-19T05:35:00.495Z,466.560
2022-12-19T05:36:00.635Z,480.960
2022-12-19T05:37:00.524Z,504.000
2022-12-19T05:38:00.498Z,524.160
2022-12-19T05:39:00.539Z,547.200
2022-12-19T05:40:00.515Z,564.480
2022-12-19T05:41:00.494Z,567.360
2022-12-19T05:42:00.695Z,552.960
2022-12-19T05:43:00.527Z,558.720
2022-12-19T05:44:00.458Z,587.520
2022-12-19T05:45:00.498Z,584.640
2022-12-19T05:46:00.464Z,590.400
2022-12-19T05:47:00.541Z,584.640
2022-12-19T05:48:01.569Z,567.360
2022-12-19T05:49:00.471Z,561.600
2022-12-19T05:50:00.461Z,547.200
2022-12-19T05:51:00.456Z,593.280
2022-12-19T05:52:00.480Z,633.600
2022-12-19T05:53:00.508Z,648.000
2022-12-19T05:54:00.617Z,679.680
2022-12-19T05:55:00.491Z,722.880
2022-12-19T05:56:00.463Z,711.360
2022-12-19T05:57:00.472Z,696.960
2022-12-19T05:58:00.617Z,714.240
2022-12-19T05:59:00.528Z,705.600
2022-12-19T06:00:00.542Z,671.040
2022-12-19T06:01:00.919Z,653.760
2022-12-19T06:02:00.665Z,676.800
2022-12-19T06:03:00.532Z,711.360
2022-12-19T06:04:00.432Z,748.800
2022-12-19T06:05:00.447Z,754.560
2022-12-19T06:06:00.599Z,760.320
2022-12-19T06:07:00.494Z,783.360
2022-12-19T06:08:00.443Z,800.640
2022-12-19T06:09:00.474Z,829.440
2022-12-19T06:10:00.493Z,829.440
2022-12-19T06:11:00.499Z,852.480
2022-12-19T06:12:00.619Z,892.800
2022-12-19T06:13:00.567Z,904.320
2022-12-19T06:14:00.592Z,927.360
2022-12-19T06:15:00.552Z,921.600
2022-12-19T06:16:00.635Z,898.560
2022-12-19T06:17:00.568Z,904.320
2022-12-19T06:18:00.638Z,961.920
2022-12-19T06:19:00.510Z,944.640
2022-12-19T06:20:00.517Z,869.760
2022-12-19T06:21:00.450Z,904.320
2022-12-19T06:22:00.483Z,910.080
2022-12-19T06:23:00.486Z,869.760
2022-12-19T06:24:00.730Z,858.240
2022-12-19T06:25:00.513Z,927.360
2022-12-19T06:26:00.486Z,950.400
2022-12-19T06:27:00.434Z,921.600
2022-12-19T06:28:00.459Z,910.080
2022-12-19T06:29:00.629Z,944.640
2022-12-19T06:30:00.703Z,990.720
2022-12-19T06:31:00.460Z,996.480
2022-12-19T06:32:00.527Z,1002.240
2022-12-19T06:33:00.425Z,979.200
2022-12-19T06:34:00.450Z,961.920
2022-12-19T06:35:04.664Z,944.640
2022-12-19T06:36:00.628Z,927.360
2022-12-19T06:37:04.027Z,904.320
2022-12-19T06:38:01.129Z,898.560
2022-12-19T06:39:00.467Z,858.240
2022-12-19T06:40:00.452Z,846.720
2022-12-19T06:41:00.432Z,864.000
2022-12-19T06:42:00.604Z,904.320
2022-12-19T06:43:00.477Z,875.520
2022-12-19T06:44:00.541Z,864.000
2022-12-19T06:45:00.445Z,875.520
2022-12-19T06:46:00.547Z,910.080
2022-12-19T06:47:00.449Z,938.880
2022-12-19T06:48:00.621Z,921.600
2022-12-19T06:49:00.521Z,921.600
2022-12-19T06:50:00.426Z,904.320
2022-12-19T06:51:00.444Z,921.600
2022-12-19T06:52:03.916Z,921.600
2022-12-19T06:53:00.447Z,950.400
2022-12-19T06:54:00.656Z,979.200
2022-12-19T06:55:00.457Z,1071.360
2022-12-19T06:56:00.420Z,1088.640
2022-12-19T06:57:00.417Z,1065.600
2022-12-19T06:58:00.453Z,1048.320
2022-12-19T06:59:00.620Z,1071.360
2022-12-19T07:00:00.527Z,1082.880
2022-12-19T07:01:00.524Z,1077.120
2022-12-19T07:02:00.600Z,1082.880
2022-12-19T07:03:00.568Z,1065.600
2022-12-19T07:04:00.449Z,1071.360
2022-12-19T07:05:00.517Z,1082.880
2022-12-19T07:06:00.646Z,1077.120
2022-12-19T07:07:00.468Z,1077.120
2022-12-19T07:08:00.474Z,1105.920
2022-12-19T07:09:00.498Z,1123.200
2022-12-19T07:10:00.507Z,1123.200
2022-12-19T07:11:00.569Z,1123.200
2022-12-19T07:12:00.622Z,1146.240
2022-12-19T07:13:00.426Z,1146.240
2022-12-19T07:14:00.603Z,1123.200
2022-12-19T07:15:00.674Z,1157.760
2022-12-19T07:16:00.482Z,1152.000
2022-12-19T07:17:00.450Z,1146.240
2022-12-19T07:18:00.706Z,1152.000
2022-12-19T07:19:00.483Z,1157.760
2022-12-19T07:20:00.425Z,1169.280
2022-12-19T07:21:00.489Z,1169.280
2022-12-19T07:22:00.511Z,1157.760
2022-12-19T07:23:00.462Z,1134.720
2022-12-19T07:24:00.600Z,1117.440
2022-12-19T07:25:00.484Z,1094.400
2022-12-19T07:26:00.530Z,1065.600
2022-12-19T07:27:00.449Z,1059.840
2022-12-19T07:28:00.497Z,1082.880
2022-12-19T07:29:00.512Z,1094.400
2022-12-19T07:30:00.661Z,1117.440
2022-12-19T07:31:00.487Z,1134.720
2022-12-19T07:32:00.562Z,1163.520
2022-12-19T07:33:00.495Z,1186.560
2022-12-19T07:34:00.524Z,1215.360
2022-12-19T07:35:00.473Z,1255.680
2022-12-19T07:36:00.617Z,1290.240
2022-12-19T07:37:00.576Z,1301.760
2022-12-19T07:38:00.519Z,1313.280
2022-12-19T07:39:00.518Z,1330.560
2022-12-19T07:40:00.552Z,1319.040
2022-12-19T07:41:00.494Z,1301.760
2022-12-19T07:42:00.654Z,1307.520
2022-12-19T07:43:00.531Z,1347.840
2022-12-19T07:44:00.449Z,1359.360
2022-12-19T07:45:00.620Z,1301.760
2022-12-19T07:46:00.490Z,1365.120
2022-12-19T07:47:00.498Z,1405.440
2022-12-19T07:48:00.622Z,1411.200
2022-12-19T07:49:00.436Z,1393.920
2022-12-19T07:50:00.433Z,1422.720
2022-12-19T07:51:00.430Z,1405.440
2022-12-19T07:52:00.491Z,1359.360
2022-12-19T07:53:00.483Z,1382.400
2022-12-19T07:54:00.599Z,1428.480
2022-12-19T07:55:00.483Z,1434.240
2022-12-19T07:56:00.482Z,1382.400
2022-12-19T07:57:00.448Z,1347.840
2022-12-19T07:58:00.443Z,1405.440
2022-12-19T07:59:00.485Z,1347.840
2022-12-19T08:00:00.677Z,1376.640
2022-12-19T08:01:00.681Z,1393.920
2022-12-19T08:02:00.618Z,1393.920
2022-12-19T08:03:00.434Z,1393.920
2022-12-19T08:04:00.455Z,1399.680
2022-12-19T08:05:00.448Z,1440.000
2022-12-19T08:06:00.685Z,1440.000
2022-12-19T08:07:00.488Z,1393.920
2022-12-19T08:08:00.449Z,1278.720
2022-12-19T08:09:00.430Z,1347.840
2022-12-19T08:10:00.433Z,1393.920
2022-12-19T08:11:00.454Z,1440.000
2022-12-19T08:12:00.655Z,1486.080
2022-12-19T08:13:00.425Z,1486.080
2022-12-19T08:14:00.459Z,1440.000
2022-12-19T08:15:00.481Z,1393.920
2022-12-19T08:16:00.694Z,1347.840
2022-12-19T08:17:21.128Z,1399.680
2022-12-19T08:18:00.507Z,1463.040
2022-12-19T08:19:00.531Z,1422.720
2022-12-19T08:20:00.450Z,1411.200
2022-12-19T08:21:00.456Z,1428.480
2022-12-19T08:22:00.461Z,1393.920
2022-12-19T08:23:00.454Z,1307.520
2022-12-19T08:24:00.672Z,1359.360
2022-12-19T08:25:00.426Z,1382.400
2022-12-19T08:26:00.463Z,1347.840
2022-12-19T08:27:00.561Z,1365.120
2022-12-19T08:28:00.455Z,1393.920
2022-12-19T08:29:00.607Z,1399.680
2022-12-19T08:30:00.647Z,1365.120
2022-12-19T08:31:00.674Z,1278.720
2022-12-19T08:32:00.467Z,1226.880
2022-12-19T08:33:00.467Z,1192.320
2022-12-19T08:34:00.493Z,1261.440
2022-12-19T08:35:00.435Z,1278.720
2022-12-19T08:36:00.522Z,1278.720
2022-12-19T08:37:00.431Z,1319.040
2022-12-19T08:38:00.575Z,1359.360
2022-12-19T08:39:00.458Z,1416.960
2022-12-19T08:40:00.437Z,1416.960
2022-12-19T08:41:00.445Z,1307.520
2022-12-19T08:42:00.575Z,1382.400
2022-12-19T08:43:00.553Z,1405.440
2022-12-19T08:44:00.491Z,1468.800
2022-12-19T08:45:00.458Z,1422.720
2022-12-19T08:46:00.743Z,1474.560
2022-12-19T08:47:00.679Z,1520.640
2022-12-19T08:48:00.535Z,1543.680
2022-12-19T08:49:00.459Z,1451.520
2022-12-19T08:50:00.425Z,1416.960
2022-12-19T08:51:00.459Z,1370.880
2022-12-19T08:52:00.446Z,1307.520
2022-12-19T08:53:00.464Z,1290.240
2022-12-19T08:54:00.603Z,1255.680
2022-12-19T08:55:00.486Z,1238.400
2022-12-19T08:56:00.483Z,1221.120
2022-12-19T08:57:00.560Z,1192.320
2022-12-19T08:58:00.587Z,1249.920
2022-12-19T08:59:00.649Z,1330.560
2022-12-19T09:00:00.724Z,1313.280
2022-12-19T09:01:05.209Z,1192.320
2022-12-19T09:02:01.094Z,1169.280
2022-12-19T09:03:01.064Z,1203.840
2022-12-19T09:04:42.707Z,1255.680
2022-12-19T09:06:02.072Z,1342.080
2022-12-19T09:06:07.004Z,1284.480
2022-12-19T09:07:00.426Z,1226.880
2022-12-19T09:08:00.447Z,1261.440
2022-12-19T09:09:00.784Z,1261.440
2022-12-19T09:10:00.503Z,1290.240
2022-12-19T09:11:00.468Z,1226.880
2022-12-19T09:12:00.663Z,1175.040
2022-12-19T09:13:00.555Z,1117.440
2022-12-19T09:14:00.562Z,1146.240
2022-12-19T09:15:00.608Z,1134.720
2022-12-19T09:16:00.549Z,1123.200
2022-12-19T09:17:00.665Z,1169.280
2022-12-19T09:18:00.716Z,1077.120
2022-12-19T09:19:00.550Z,1042.560
2022-12-19T09:20:00.510Z,973.440
2022-12-19T09:21:00.534Z,898.560
2022-12-19T09:22:00.511Z,944.640
2022-12-19T09:23:00.432Z,1065.600
2022-12-19T09:24:05.302Z,1123.200
2022-12-19T09:25:00.457Z,1163.520
2022-12-19T09:26:00.516Z,1169.280
2022-12-19T09:27:00.484Z,1175.040
2022-12-19T09:29:00.463Z,1215.360
2022-12-19T09:30:00.696Z,1261.440
2022-12-19T09:31:00.556Z,1267.200
2022-12-19T09:32:00.480Z,1330.560
2022-12-19T09:33:00.619Z,1324.800
2022-12-19T09:34:00.462Z,1307.520
2022-12-19T09:35:00.439Z,1319.040
2022-12-19T09:36:00.549Z,1301.760
2022-12-19T09:37:00.460Z,1301.760
2022-12-19T09:38:00.830Z,1342.080
2022-12-19T09:39:00.498Z,1347.840
2022-12-19T09:40:00.545Z,1307.520
2022-12-19T09:41:00.500Z,1359.360
2022-12-19T09:42:00.619Z,1474.560
2022-12-19T09:43:00.424Z,1457.280
2022-12-19T09:44:01.960Z,1359.360
2022-12-19T09:45:00.468Z,1272.960
2022-12-19T09:46:00.510Z,1290.240
2022-12-19T09:47:00.456Z,1278.720
2022-12-19T09:48:00.702Z,1272.960
2022-12-19T09:49:00.462Z,1232.640
2022-12-19T09:50:00.498Z,1192.320
2022-12-19T09:51:10.624Z,1198.080
2022-12-19T09:52:00.435Z,1238.400
2022-12-19T09:53:00.452Z,1198.080
2022-12-19T09:54:00.763Z,1249.920
2022-12-19T09:55:00.466Z,1272.960
2022-12-19T09:56:00.452Z,1365.120
2022-12-19T09:57:00.469Z,1284.480
2022-12-19T09:58:00.427Z,1324.800
2022-12-19T09:59:00.459Z,1405.440
2022-12-19T10:00:00.708Z,1313.280
2022-12-19T10:01:00.644Z,1313.280
2022-12-19T10:02:00.537Z,1359.360
2022-12-19T10:03:00.833Z,1261.440
2022-12-19T10:04:00.505Z,1221.120
2022-12-19T10:05:19.726Z,1232.640
2022-12-19T10:06:56.260Z,1238.400
2022-12-19T10:07:18.655Z,1244.160
2022-12-19T10:08:09.208Z,1278.720
2022-12-19T10:10:42.259Z,1307.520
2022-12-19T10:12:34.102Z,1290.240
2022-12-19T10:12:39.944Z,1301.760
2022-12-19T10:12:44.662Z,1278.720
2022-12-19T10:13:03.646Z,1261.440
2022-12-19T10:14:00.538Z,1249.920
2022-12-19T10:15:00.478Z,1272.960
2022-12-19T10:16:00.870Z,1249.920
2022-12-19T10:17:22.732Z,1226.880
2022-12-19T10:18:00.660Z,1261.440
2022-12-19T10:19:00.503Z,1342.080
2022-12-19T10:20:00.474Z,1393.920
2022-12-19T10:21:00.480Z,1451.520
2022-12-19T10:22:17.889Z,1474.560
2022-12-19T10:23:00.575Z,1416.960
2022-12-19T10:24:00.597Z,1405.440
2022-12-19T10:25:08.121Z,1342.080
2022-12-19T10:26:00.457Z,1336.320
2022-12-19T10:27:00.535Z,1272.960
2022-12-19T10:28:00.774Z,1278.720
2022-12-19T10:29:00.429Z,1134.720
2022-12-19T10:30:00.718Z,1163.520
2022-12-19T10:31:05.099Z,1370.880
2022-12-19T10:32:00.716Z,1422.720
2022-12-19T10:33:00.581Z,1376.640
2022-12-19T10:34:00.665Z,1319.040
2022-12-19T10:35:00.464Z,1272.960
2022-12-19T10:36:01.697Z,1336.320
2022-12-19T10:37:25.650Z,1284.480
2022-12-19T10:38:00.428Z,1169.280
2022-12-19T10:39:00.528Z,1013.760
2022-12-19T10:40:00.466Z,973.440
2022-12-19T10:41:00.501Z,1077.120
2022-12-19T10:42:00.695Z,1186.560
2022-12-19T10:43:07.034Z,1094.400
2022-12-19T10:44:00.526Z,1175.040
2022-12-19T10:45:00.443Z,1134.720
2022-12-19T10:46:00.516Z,1036.800
2022-12-19T10:47:00.558Z,1215.360
2022-12-19T10:48:00.713Z,1249.920
2022-12-19T10:49:00.649Z,1238.400
2022-12-19T10:50:03.978Z,1215.360
2022-12-19T10:51:06.777Z,1209.600
2022-12-19T10:52:00.473Z,1175.040
2022-12-19T10:53:00.471Z,1134.720
2022-12-19T10:54:00.613Z,1117.440
2022-12-19T10:55:00.495Z,973.440
2022-12-19T10:56:00.574Z,933.120
2022-12-19T10:57:00.719Z,904.320
2022-12-19T10:58:00.560Z,898.560
2022-12-19T10:59:00.601Z,864.000
2022-12-19T11:00:00.665Z,881.280
2022-12-19T11:01:00.535Z,858.240
2022-12-19T11:02:02.465Z,734.400
2022-12-19T11:03:00.644Z,734.400
2022-12-19T11:04:01.088Z,806.400
2022-12-19T11:05:00.686Z,794.880
2022-12-19T11:06:00.617Z,806.400
2022-12-19T11:07:00.459Z,748.800
2022-12-19T11:08:00.561Z,743.040
2022-12-19T11:09:00.442Z,846.720
2022-12-19T11:10:36.776Z,875.520
2022-12-19T11:13:10.372Z,921.600
2022-12-19T11:15:39.768Z,1088.640
2022-12-19T11:17:47.568Z,1128.960
2022-12-19T11:18:25.707Z,1094.400
2022-12-19T11:19:27.532Z,1105.920
2022-12-19T11:19:28.808Z,1123.200
2022-12-19T11:27:07.699Z,1117.440
2022-12-19T11:29:18.575Z,1146.240
2022-12-19T11:29:18.621Z,1152.000
2022-12-19T11:29:34.803Z,1025.280
2022-12-19T11:29:36.944Z,1186.560
2022-12-19T11:29:41.740Z,748.800
2022-12-19T11:29:55.167Z,990.720
2022-12-19T11:30:39.347Z,737.280
2022-12-19T11:30:41.737Z,938.880
2022-12-19T11:30:44.128Z,777.600
2022-12-19T11:30:45.320Z,996.480
2022-12-19T11:30:45.726Z,875.520
2022-12-19T11:31:51.067Z,766.080
2022-12-19T11:32:01.665Z,737.280
2022-12-19T11:32:38.726Z,731.520
2022-12-19T11:33:00.487Z,737.280
2022-12-19T11:34:00.553Z,676.800
2022-12-19T11:35:00.450Z,645.120
2022-12-19T11:36:00.446Z,671.040
2022-12-19T11:37:01.612Z,705.600
2022-12-19T11:38:00.394Z,711.360
2022-12-19T11:39:00.357Z,694.080
2022-12-19T11:40:00.423Z,717.120
2022-12-19T11:41:00.373Z,737.280
2022-12-19T11:42:00.426Z,705.600
2022-12-19T11:43:41.954Z,619.200
2022-12-19T11:44:00.434Z,596.160
2022-12-19T11:45:00.481Z,593.280
2022-12-19T11:46:00.398Z,584.640
2022-12-19T11:47:00.445Z,601.920
2022-12-19T11:48:00.559Z,639.360
2022-12-19T11:49:00.718Z,656.640
2022-12-19T11:50:00.391Z,662.400
2022-12-19T11:51:00.366Z,665.280
2022-12-19T11:52:00.368Z,662.400
2022-12-19T11:53:05.960Z,662.400
2022-12-19T11:54:00.411Z,708.480
2022-12-19T11:55:00.474Z,717.120
2022-12-19T11:56:00.415Z,728.640
2022-12-19T11:57:00.435Z,720.000
2022-12-19T11:58:00.373Z,731.520
2022-12-19T11:59:00.449Z,734.400
2022-12-19T12:00:04.991Z,754.560
2022-12-19T12:01:00.575Z,748.800
2022-12-19T12:02:00.523Z,748.800
2022-12-19T12:03:00.526Z,728.640
2022-12-19T12:04:02.726Z,702.720
2022-12-19T12:05:00.489Z,688.320
2022-12-19T12:06:00.370Z,699.840
2022-12-19T12:07:03.071Z,696.960
2022-12-19T12:09:40.235Z,699.840
2022-12-19T12:11:24.840Z,688.320
2022-12-19T12:15:25.477Z,648.000
2022-12-19T12:15:39.681Z,665.280
2022-12-19T12:18:19.090Z,650.880
2022-12-19T12:23:42.159Z,622.080
2022-12-19T12:23:52.018Z,636.480
2022-12-19T12:24:14.141Z,630.720
2022-12-19T12:27:49.072Z,627.840